createdAt,value
2018-08-19T00:02:20.441Z,26.84
2018-08-19T00:05:06.749Z,26.80
2018-08-19T00:07:35.722Z,26.75
2018-08-19T00:10:05.564Z,26.71
2018-08-19T00:12:44.756Z,26.66
2018-08-19T00:15:14.111Z,26.59
2018-08-19T00:17:43.137Z,26.55
2018-08-19T00:20:13.425Z,26.53
2018-08-19T00:22:42.636Z,26.50
2018-08-19T00:25:16.133Z,26.46
2018-08-19T00:27:44.999Z,26.47
2018-08-19T00:30:14.053Z,26.48
2018-08-19T00:32:43.096Z,26.48
2018-08-19T00:35:12.674Z,26.47
2018-08-19T00:37:42.076Z,26.47
2018-08-19T00:40:13.330Z,26.45
2018-08-19T00:42:44.460Z,26.44
2018-08-19T00:45:13.866Z,26.43
2018-08-19T00:47:42.979Z,26.43
2018-08-19T00:50:12.201Z,26.43
2018-08-19T00:52:41.801Z,26.43
2018-08-19T00:55:11.111Z,26.44
2018-08-19T00:57:43.022Z,26.44
2018-08-19T01:00:12.248Z,26.43
2018-08-19T01:02:41.679Z,26.43
2018-08-19T01:05:10.740Z,26.42
2018-08-19T01:07:39.927Z,26.43
2018-08-19T01:10:09.592Z,26.44
2018-08-19T01:12:38.748Z,26.44
2018-08-19T01:15:11.175Z,26.45
2018-08-19T01:17:41.721Z,26.45
2018-08-19T01:20:12.072Z,26.45
2018-08-19T01:22:42.310Z,26.44
2018-08-19T01:25:13.174Z,26.43
2018-08-19T01:27:42.480Z,26.41
2018-08-19T01:30:15.733Z,26.39
2018-08-19T01:32:44.851Z,26.38
2018-08-19T01:35:14.351Z,26.38
2018-08-19T01:37:43.370Z,26.36
2018-08-19T01:40:16.072Z,26.36
2018-08-19T01:42:45.592Z,26.34
2018-08-19T01:45:14.815Z,26.34
2018-08-19T01:47:44.744Z,26.36
2018-08-19T01:50:16.382Z,26.36
2018-08-19T01:52:46.511Z,26.35
2018-08-19T01:55:15.553Z,26.32
2018-08-19T01:57:46.642Z,26.25
2018-08-19T02:00:16.638Z,26.15
2018-08-19T02:02:55.870Z,26.04
2018-08-19T02:05:25.467Z,25.98
2018-08-19T02:07:57.198Z,25.96
2018-08-19T02:10:26.818Z,25.95
2018-08-19T02:12:57.070Z,25.94
2018-08-19T02:15:27.295Z,25.89
2018-08-19T02:18:03.388Z,25.86
2018-08-19T02:20:36.458Z,25.83
2018-08-19T02:23:07.412Z,25.76
2018-08-19T02:25:40.664Z,25.70
2018-08-19T02:28:10.678Z,25.68
2018-08-19T02:31:03.388Z,25.67
2018-08-19T02:33:33.566Z,25.68
2018-08-19T02:36:05.539Z,25.69
2018-08-19T02:38:34.897Z,25.69
2018-08-19T02:41:03.928Z,25.72
2018-08-19T02:43:33.896Z,25.73
2018-08-19T02:46:02.960Z,25.74
2018-08-19T02:48:42.936Z,25.76
2018-08-19T02:51:15.537Z,25.76
2018-08-19T02:53:45.824Z,25.77
2018-08-19T02:56:15.773Z,25.79
2018-08-19T02:58:45.915Z,25.81
2018-08-19T03:01:15.795Z,25.78
2018-08-19T03:03:45.468Z,25.75
2018-08-19T03:06:14.868Z,25.73
2018-08-19T03:08:50.074Z,25.72
2018-08-19T03:11:21.231Z,25.73
2018-08-19T03:13:50.335Z,25.74
2018-08-19T03:16:19.410Z,25.72
2018-08-19T03:18:51.312Z,25.73
2018-08-19T03:21:21.509Z,25.72
2018-08-19T03:23:52.422Z,25.71
2018-08-19T03:26:21.965Z,25.70
2018-08-19T03:28:51.262Z,25.68
2018-08-19T03:31:20.406Z,25.68
2018-08-19T03:33:49.502Z,25.66
2018-08-19T03:36:18.447Z,25.65
2018-08-19T03:38:47.525Z,25.62
2018-08-19T03:41:17.108Z,25.60
2018-08-19T03:43:53.940Z,25.56
2018-08-19T03:46:23.370Z,25.52
2018-08-19T03:48:52.376Z,25.46
2018-08-19T03:51:21.378Z,25.42
2018-08-19T03:53:50.418Z,25.34
2018-08-19T03:56:24.455Z,25.29
2018-08-19T03:58:57.557Z,25.23
2018-08-19T04:01:37.619Z,25.15
2018-08-19T04:04:06.643Z,25.09
2018-08-19T04:06:36.821Z,25.03
2018-08-19T04:09:07.260Z,25.00
2018-08-19T04:11:36.433Z,24.95
2018-08-19T04:14:15.922Z,24.91
2018-08-19T04:16:44.996Z,24.90
2018-08-19T04:19:15.711Z,24.89
2018-08-19T04:21:44.879Z,24.86
2018-08-19T04:24:13.951Z,24.85
2018-08-19T04:26:43.143Z,24.84
2018-08-19T04:29:16.388Z,24.82
2018-08-19T04:31:45.315Z,24.82
2018-08-19T04:34:14.279Z,24.81
2018-08-19T04:36:43.732Z,24.80
2018-08-19T04:39:12.933Z,24.81
2018-08-19T04:41:42.926Z,24.81
2018-08-19T04:44:12.075Z,24.82
2018-08-19T04:46:41.678Z,24.84
2018-08-19T04:49:10.815Z,24.83
2018-08-19T04:51:40.715Z,24.83
2018-08-19T04:54:09.836Z,24.82
2018-08-19T04:56:39.309Z,24.85
2018-08-19T04:59:08.383Z,24.85
2018-08-19T05:01:37.419Z,24.88
2018-08-19T05:04:06.468Z,24.93
2018-08-19T05:06:35.627Z,24.98
2018-08-19T05:09:07.045Z,25.00
2018-08-19T05:11:36.072Z,25.00
2018-08-19T05:14:05.340Z,25.01
2018-08-19T05:16:34.542Z,25.03
2018-08-19T05:19:05.156Z,25.04
2018-08-19T05:21:34.626Z,25.08
2018-08-19T05:24:03.670Z,25.10
2018-08-19T05:26:33.189Z,25.13
2018-08-19T05:29:10.684Z,25.19
2018-08-19T05:31:46.815Z,25.25
2018-08-19T05:34:21.123Z,25.31
2018-08-19T05:36:50.850Z,25.37
2018-08-19T05:39:20.006Z,25.44
2018-08-19T05:42:00.034Z,25.52
2018-08-19T05:44:32.795Z,25.59
2018-08-19T05:47:11.590Z,25.66
2018-08-19T05:49:43.837Z,25.73
2018-08-19T05:52:28.328Z,25.80
2018-08-19T05:54:58.721Z,25.91
2018-08-19T05:57:29.498Z,25.97
2018-08-19T05:59:59.138Z,26.05
2018-08-19T06:02:34.180Z,26.11
2018-08-19T06:05:04.589Z,26.20
2018-08-19T06:07:33.499Z,26.26
2018-08-19T06:10:03.421Z,26.33
2018-08-19T06:12:32.700Z,26.40
2018-08-19T06:15:02.713Z,26.47
2018-08-19T06:17:32.553Z,26.53
2018-08-19T06:20:01.442Z,26.58
2018-08-19T06:22:47.071Z,26.64
2018-08-19T06:25:16.592Z,26.69
2018-08-19T06:27:46.675Z,26.74
2018-08-19T06:30:17.203Z,26.80
2018-08-19T06:32:46.522Z,26.86
2018-08-19T06:35:15.766Z,26.90
2018-08-19T06:37:44.808Z,26.94
2018-08-19T06:40:16.673Z,26.97
2018-08-19T06:42:46.172Z,27.00
2018-08-19T06:45:15.484Z,27.03
2018-08-19T06:47:44.713Z,27.05
2018-08-19T06:50:22.086Z,27.09
2018-08-19T06:52:51.388Z,27.12
2018-08-19T06:55:20.634Z,27.16
2018-08-19T06:57:49.795Z,27.21
2018-08-19T07:00:24.799Z,27.27
2018-08-19T07:02:54.536Z,27.32
2018-08-19T07:05:26.979Z,27.38
2018-08-19T07:07:56.109Z,27.42
2018-08-19T07:10:31.145Z,27.47
2018-08-19T07:13:05.689Z,27.51
2018-08-19T07:15:36.080Z,27.56
2018-08-19T07:18:05.771Z,27.60
2018-08-19T07:20:35.044Z,27.63
2018-08-19T07:23:04.127Z,27.66
2018-08-19T07:25:33.140Z,27.71
2018-08-19T07:28:02.218Z,27.73
2018-08-19T07:30:31.268Z,27.78
2018-08-19T07:33:00.715Z,27.81
2018-08-19T07:35:29.857Z,27.85
2018-08-19T07:37:59.945Z,27.91
2018-08-19T07:40:29.099Z,27.98
2018-08-19T07:42:58.148Z,28.05
2018-08-19T07:45:27.321Z,28.11
2018-08-19T07:47:56.221Z,28.16
2018-08-19T07:50:25.768Z,28.18
2018-08-19T07:52:55.424Z,28.22
2018-08-19T07:55:24.415Z,28.26
2018-08-19T07:57:53.629Z,28.31
2018-08-19T08:00:54.531Z,28.33
2018-08-19T08:03:23.535Z,28.33
2018-08-19T08:05:52.571Z,28.34
2018-08-19T08:08:21.749Z,28.36
2018-08-19T08:10:53.925Z,28.40
2018-08-19T08:13:24.316Z,28.46
2018-08-19T08:15:53.364Z,28.51
2018-08-19T08:18:22.588Z,28.55
2018-08-19T08:20:58.145Z,28.60
2018-08-19T08:23:28.863Z,28.59
2018-08-19T08:25:58.260Z,28.62
2018-08-19T08:28:28.065Z,28.66
2018-08-19T08:30:57.047Z,28.72
2018-08-19T08:33:25.896Z,28.80
2018-08-19T08:35:56.831Z,28.87
2018-08-19T08:38:25.898Z,28.91
2018-08-19T08:40:55.197Z,29.00
2018-08-19T08:43:24.802Z,29.06
2018-08-19T08:45:56.890Z,29.16
2018-08-19T08:48:26.965Z,29.23
2018-08-19T08:50:56.293Z,29.30
2018-08-19T08:53:29.772Z,29.36
2018-08-19T08:55:59.569Z,29.44
2018-08-19T08:58:28.762Z,29.51
2018-08-19T09:00:57.783Z,29.54
2018-08-19T09:03:26.956Z,29.62
2018-08-19T09:05:56.105Z,29.71
2018-08-19T09:08:25.680Z,29.78
2018-08-19T09:10:54.893Z,29.86
2018-08-19T09:13:24.396Z,29.95
2018-08-19T09:15:53.289Z,30.01
2018-08-19T09:18:22.220Z,30.06
2018-08-19T09:20:51.409Z,30.11
2018-08-19T09:23:20.731Z,30.16
2018-08-19T09:25:50.581Z,30.21
2018-08-19T09:28:19.743Z,30.27
2018-08-19T09:30:49.026Z,30.36
2018-08-19T09:33:18.929Z,30.46
2018-08-19T09:35:47.908Z,30.54
2018-08-19T09:38:20.994Z,30.63
2018-08-19T09:40:50.258Z,30.69
2018-08-19T09:43:19.603Z,30.75
2018-08-19T09:45:48.897Z,30.80
2018-08-19T09:48:18.219Z,30.84
2018-08-19T09:50:47.299Z,30.88
2018-08-19T09:53:16.427Z,30.94
2018-08-19T09:55:47.050Z,30.99
2018-08-19T09:58:20.980Z,31.07
2018-08-19T10:00:55.258Z,31.14
2018-08-19T10:03:24.251Z,31.20
2018-08-19T10:05:53.415Z,31.28
2018-08-19T10:08:23.073Z,31.34
2018-08-19T10:10:52.657Z,31.37
2018-08-19T10:13:21.793Z,31.42
2018-08-19T10:15:50.824Z,31.51
2018-08-19T10:18:20.117Z,31.59
2018-08-19T10:20:49.348Z,31.67
2018-08-19T10:23:18.752Z,31.71
2018-08-19T10:25:48.178Z,31.76
2018-08-19T10:28:17.406Z,31.85
2018-08-19T10:30:50.597Z,31.93
2018-08-19T10:33:21.518Z,32.00
2018-08-19T10:35:50.784Z,32.07
2018-08-19T10:38:19.928Z,32.16
2018-08-19T10:41:08.183Z,32.26
2018-08-19T10:43:37.315Z,32.38
2018-08-19T10:46:06.961Z,32.48
2018-08-19T10:48:36.637Z,32.58
2018-08-19T10:51:05.648Z,32.65
2018-08-19T10:53:35.297Z,32.72
2018-08-19T10:56:04.466Z,32.81
2018-08-19T10:58:33.792Z,32.88
2018-08-19T11:01:03.343Z,32.97
2018-08-19T11:03:32.456Z,33.04
2018-08-19T11:06:01.712Z,33.11
2018-08-19T11:08:31.116Z,33.17
2018-08-19T11:11:00.616Z,33.25
2018-08-19T11:13:30.009Z,33.33
2018-08-19T11:15:59.474Z,33.38
2018-08-19T11:18:31.328Z,33.40
2018-08-19T11:21:05.725Z,33.48
2018-08-19T11:23:37.865Z,33.54
2018-08-19T11:26:07.701Z,33.63
2018-08-19T11:28:39.485Z,33.69
2018-08-19T11:31:15.961Z,33.74
2018-08-19T11:33:45.216Z,33.82
2018-08-19T11:36:14.442Z,33.86
2018-08-19T11:38:46.934Z,33.85
2018-08-19T11:41:16.497Z,33.91
2018-08-19T11:43:46.623Z,34.00
2018-08-19T11:46:16.166Z,34.10
2018-08-19T11:48:45.804Z,34.19
2018-08-19T11:51:16.102Z,34.30
2018-08-19T11:53:45.564Z,34.43
2018-08-19T11:56:14.598Z,34.52
2018-08-19T11:58:47.798Z,34.63
2018-08-19T12:01:18.677Z,34.72
2018-08-19T12:04:00.187Z,34.83
2018-08-19T12:06:31.387Z,34.93
2018-08-19T12:09:02.019Z,35.00
2018-08-19T12:11:33.018Z,35.09
2018-08-19T12:14:10.419Z,35.16
2018-08-19T12:16:47.867Z,35.23
2018-08-19T12:19:21.002Z,35.29
2018-08-19T12:21:58.695Z,35.34
2018-08-19T12:24:47.784Z,35.37
2018-08-19T12:27:18.454Z,35.43
2018-08-19T12:29:48.045Z,35.48
2018-08-19T12:32:22.931Z,35.55
2018-08-19T12:34:55.043Z,35.64
2018-08-19T12:37:25.246Z,35.71
2018-08-19T12:39:55.448Z,35.77
2018-08-19T12:42:24.764Z,35.84
2018-08-19T12:44:59.773Z,35.90
2018-08-19T12:47:29.411Z,35.93
2018-08-19T12:50:00.650Z,36.00
2018-08-19T12:52:30.975Z,36.04
2018-08-19T12:55:03.714Z,36.03
2018-08-19T12:57:33.101Z,36.06
2018-08-19T13:00:18.840Z,36.08
2018-08-19T13:02:50.283Z,36.12
2018-08-19T13:05:20.018Z,36.19
2018-08-19T13:07:49.056Z,36.25
2018-08-19T13:10:18.770Z,36.34
2018-08-19T13:12:50.046Z,36.40
2018-08-19T13:15:19.105Z,36.41
2018-08-19T13:17:48.151Z,36.45
2018-08-19T13:20:17.407Z,36.51
2018-08-19T13:22:52.530Z,36.54
2018-08-19T13:25:22.957Z,36.57
2018-08-19T13:27:52.270Z,36.60
2018-08-19T13:30:21.722Z,36.62
2018-08-19T13:32:51.433Z,36.66
2018-08-19T13:35:20.720Z,36.72
2018-08-19T13:37:50.154Z,36.73
2018-08-19T13:40:19.699Z,36.74
2018-08-19T13:42:48.685Z,36.79
2018-08-19T13:45:19.833Z,36.84
2018-08-19T13:47:50.617Z,36.90
2018-08-19T13:50:19.889Z,36.91
2018-08-19T13:52:49.610Z,36.92
2018-08-19T13:55:19.900Z,36.92
2018-08-19T13:57:48.807Z,36.94
2018-08-19T14:00:20.984Z,36.97
2018-08-19T14:02:50.340Z,37.00
2018-08-19T14:05:19.699Z,37.02
2018-08-19T14:07:49.280Z,37.05
2018-08-19T14:10:18.812Z,37.08
2018-08-19T14:12:48.014Z,37.11
2018-08-19T14:15:17.484Z,37.14
2018-08-19T14:17:46.731Z,37.18
2018-08-19T14:20:15.874Z,37.22
2018-08-19T14:22:44.917Z,37.23
2018-08-19T14:25:14.396Z,37.22
2018-08-19T14:27:43.307Z,37.24
2018-08-19T14:30:12.933Z,37.24
2018-08-19T14:32:45.228Z,37.25
2018-08-19T14:35:14.373Z,37.24
2018-08-19T14:37:44.211Z,37.19
2018-08-19T14:40:15.653Z,37.19
2018-08-19T14:42:45.083Z,37.23
2018-08-19T14:45:14.813Z,37.27
2018-08-19T14:47:44.076Z,37.32
2018-08-19T14:50:15.215Z,37.28
2018-08-19T14:52:44.486Z,37.29
2018-08-19T14:55:13.730Z,37.29
2018-08-19T14:57:42.882Z,37.29
2018-08-19T15:00:13.886Z,37.30
2018-08-19T15:02:43.089Z,37.35
2018-08-19T15:05:18.606Z,37.40
2018-08-19T15:07:48.399Z,37.40
2018-08-19T15:10:21.151Z,37.39
2018-08-19T15:12:50.187Z,37.41
2018-08-19T15:15:19.187Z,37.42
2018-08-19T15:17:55.952Z,37.45
2018-08-19T15:20:29.328Z,37.50
2018-08-19T15:23:09.051Z,37.50
2018-08-19T15:25:38.383Z,37.50
2018-08-19T15:28:07.751Z,37.51
2018-08-19T15:30:39.638Z,37.51
2018-08-19T15:33:09.405Z,37.53
2018-08-19T15:35:39.316Z,37.55
2018-08-19T15:38:09.364Z,37.56
2018-08-19T15:40:41.689Z,37.58
2018-08-19T15:43:11.807Z,37.59
2018-08-19T15:45:41.102Z,37.60
2018-08-19T15:48:10.164Z,37.59
2018-08-19T15:50:39.689Z,37.60
2018-08-19T15:53:09.929Z,37.62
2018-08-19T15:55:39.648Z,37.59
2018-08-19T15:58:08.710Z,37.54
2018-08-19T16:00:40.058Z,37.54
2018-08-19T16:03:10.180Z,37.54
2018-08-19T16:05:39.651Z,37.55
2018-08-19T16:08:08.932Z,37.59
2018-08-19T16:10:38.086Z,37.57
2018-08-19T16:13:09.840Z,37.53
2018-08-19T16:15:39.039Z,37.49
2018-08-19T16:18:08.312Z,37.43
2018-08-19T16:20:37.542Z,37.40
2018-08-19T16:23:09.861Z,37.37
2018-08-19T16:25:39.468Z,37.33
2018-08-19T16:28:08.482Z,37.31
2018-08-19T16:30:37.808Z,37.28
2018-08-19T16:33:07.412Z,37.25
2018-08-19T16:35:40.038Z,37.21
2018-08-19T16:38:13.897Z,37.20
2018-08-19T16:40:42.943Z,37.16
2018-08-19T16:43:11.966Z,37.11
2018-08-19T16:45:41.108Z,37.06
2018-08-19T16:48:10.587Z,37.00
2018-08-19T16:50:39.753Z,36.95
2018-08-19T16:53:08.918Z,36.90
2018-08-19T16:55:38.374Z,36.86
2018-08-19T16:58:07.364Z,36.84
2018-08-19T17:00:36.533Z,36.80
2018-08-19T17:03:39.302Z,36.75
2018-08-19T17:06:10.338Z,36.64
2018-08-19T17:08:39.932Z,36.57
2018-08-19T17:11:10.211Z,36.49
2018-08-19T17:13:39.344Z,36.45
2018-08-19T17:16:09.005Z,36.43
2018-08-19T17:18:38.127Z,36.45
2018-08-19T17:21:07.513Z,36.52
2018-08-19T17:23:36.813Z,36.59
2018-08-19T17:26:12.974Z,36.64
2018-08-19T17:28:42.150Z,36.68
2018-08-19T17:31:11.516Z,36.64
2018-08-19T17:33:40.747Z,36.58
2018-08-19T17:36:10.009Z,36.49
2018-08-19T17:38:39.095Z,36.39
2018-08-19T17:41:08.646Z,36.29
2018-08-19T17:43:41.737Z,36.15
2018-08-19T17:46:13.447Z,36.02
2018-08-19T17:48:43.599Z,35.89
2018-08-19T17:51:24.419Z,35.75
2018-08-19T17:53:54.328Z,35.62
2018-08-19T17:56:28.705Z,35.48
2018-08-19T17:58:57.888Z,35.36
2018-08-19T18:01:26.968Z,35.25
2018-08-19T18:03:55.930Z,35.12
2018-08-19T18:06:25.169Z,35.01
2018-08-19T18:08:54.876Z,34.88
2018-08-19T18:11:23.996Z,34.75
2018-08-19T18:13:53.028Z,34.63
2018-08-19T18:16:22.360Z,34.50
2018-08-19T18:18:51.428Z,34.40
2018-08-19T18:21:20.591Z,34.29
2018-08-19T18:23:50.031Z,34.18
2018-08-19T18:26:20.154Z,34.09
2018-08-19T18:28:49.443Z,34.00
2018-08-19T18:31:26.144Z,33.91
2018-08-19T18:34:01.160Z,33.81
2018-08-19T18:36:33.247Z,33.73
2018-08-19T18:39:03.197Z,33.65
2018-08-19T18:41:34.378Z,33.57
2018-08-19T18:44:05.221Z,33.48
2018-08-19T18:46:34.663Z,33.41
2018-08-19T18:49:10.246Z,33.33
2018-08-19T18:51:39.850Z,33.26
2018-08-19T18:54:21.412Z,33.20
2018-08-19T18:56:50.512Z,33.11
2018-08-19T18:59:19.645Z,33.03
2018-08-19T19:01:49.215Z,32.97
2018-08-19T19:04:18.520Z,32.90
2018-08-19T19:06:47.817Z,32.84
2018-08-19T19:09:17.088Z,32.79
2018-08-19T19:11:47.863Z,32.74
2018-08-19T19:14:19.621Z,32.67
2018-08-19T19:16:50.801Z,32.62
2018-08-19T19:19:20.395Z,32.58
2018-08-19T19:21:54.919Z,32.53
2018-08-19T19:24:28.924Z,32.46
2018-08-19T19:26:58.205Z,32.39
2018-08-19T19:29:28.523Z,32.34
2018-08-19T19:31:58.785Z,32.25
2018-08-19T19:34:31.359Z,32.19
2018-08-19T19:37:01.369Z,32.14
2018-08-19T19:39:30.873Z,32.08
2018-08-19T19:42:05.589Z,31.99
2018-08-19T19:44:36.157Z,31.93
2018-08-19T19:47:08.954Z,31.87
2018-08-19T19:49:49.323Z,31.82
2018-08-19T19:52:18.594Z,31.76
2018-08-19T19:54:47.961Z,31.71
2018-08-19T19:57:16.962Z,31.66
2018-08-19T19:59:45.831Z,31.61
2018-08-19T20:02:23.527Z,31.56
2018-08-19T20:04:52.669Z,31.50
2018-08-19T20:07:21.639Z,31.46
2018-08-19T20:09:51.112Z,31.40
2018-08-19T20:12:25.313Z,31.36
2018-08-19T20:14:54.980Z,31.32
2018-08-19T20:17:24.456Z,31.27
2018-08-19T20:19:53.927Z,31.22
2018-08-19T20:22:23.379Z,31.18
2018-08-19T20:24:52.811Z,31.14
2018-08-19T20:27:21.929Z,31.09
2018-08-19T20:29:52.593Z,31.05
2018-08-19T20:32:22.169Z,30.99
2018-08-19T20:34:51.275Z,30.93
2018-08-19T20:37:21.929Z,30.89
2018-08-19T20:39:50.945Z,30.84
2018-08-19T20:42:20.207Z,30.81
2018-08-19T20:44:49.281Z,30.76
2018-08-19T20:47:18.743Z,30.71
2018-08-19T20:49:50.115Z,30.67
2018-08-19T20:52:22.332Z,30.61
2018-08-19T20:54:51.391Z,30.57
2018-08-19T20:57:20.555Z,30.52
2018-08-19T20:59:49.985Z,30.48
2018-08-19T21:02:19.464Z,30.44
2018-08-19T21:04:48.601Z,30.39
2018-08-19T21:07:17.631Z,30.35
2018-08-19T21:09:46.800Z,30.27
2018-08-19T21:12:16.394Z,30.25
2018-08-19T21:14:46.284Z,30.21
2018-08-19T21:17:15.263Z,30.15
2018-08-19T21:19:44.194Z,30.09
2018-08-19T21:22:19.931Z,30.04
2018-08-19T21:24:49.096Z,29.99
2018-08-19T21:27:18.116Z,29.95
2018-08-19T21:29:48.629Z,29.91
2018-08-19T21:32:18.073Z,29.88
2018-08-19T21:34:47.912Z,29.86
2018-08-19T21:37:21.959Z,29.84
2018-08-19T21:39:50.983Z,29.81
2018-08-19T21:42:20.545Z,29.77
2018-08-19T21:44:50.398Z,29.76
2018-08-19T21:47:19.795Z,29.73
2018-08-19T21:49:52.902Z,29.73
2018-08-19T21:52:22.013Z,29.72
2018-08-19T21:54:51.173Z,29.69
2018-08-19T21:57:20.390Z,29.67
2018-08-19T21:59:49.476Z,29.65
2018-08-19T22:02:23.980Z,29.65
2018-08-19T22:04:53.033Z,29.63
2018-08-19T22:07:22.709Z,29.62
2018-08-19T22:09:52.299Z,29.60
2018-08-19T22:12:21.623Z,29.56
2018-08-19T22:14:50.925Z,29.54
2018-08-19T22:17:20.215Z,29.53
2018-08-19T22:19:49.404Z,29.51
2018-08-19T22:22:19.776Z,29.50
2018-08-19T22:24:49.110Z,29.48
2018-08-19T22:27:18.212Z,29.46
2018-08-19T22:29:47.754Z,29.42
2018-08-19T22:32:16.909Z,29.40
2018-08-19T22:34:45.993Z,29.35
2018-08-19T22:37:15.279Z,29.34
2018-08-19T22:39:44.259Z,29.30
2018-08-19T22:42:14.085Z,29.29
2018-08-19T22:44:43.224Z,29.27
2018-08-19T22:47:13.206Z,29.24
2018-08-19T22:49:42.229Z,29.23
2018-08-19T22:52:18.868Z,29.22
2018-08-19T22:54:48.448Z,29.17
2018-08-19T22:57:17.501Z,29.15
2018-08-19T22:59:46.594Z,29.13
2018-08-19T23:02:17.061Z,29.12
2018-08-19T23:04:46.616Z,29.12
2018-08-19T23:07:15.694Z,29.10
2018-08-19T23:09:44.731Z,29.09
2018-08-19T23:12:13.938Z,29.07
2018-08-19T23:14:53.790Z,29.06
2018-08-19T23:17:22.882Z,29.03
2018-08-19T23:19:52.750Z,29.00
2018-08-19T23:22:22.111Z,28.98
2018-08-19T23:24:51.219Z,28.95
2018-08-19T23:27:20.285Z,28.91
2018-08-19T23:29:49.685Z,28.86
2018-08-19T23:32:18.973Z,28.81
2018-08-19T23:34:48.090Z,28.71
2018-08-19T23:37:17.003Z,28.64
2018-08-19T23:39:45.962Z,28.58
2018-08-19T23:42:15.107Z,28.54
2018-08-19T23:44:44.236Z,28.50
2018-08-19T23:47:13.259Z,28.48
2018-08-19T23:49:42.210Z,28.44
2018-08-19T23:52:11.714Z,28.42
2018-08-19T23:54:40.950Z,28.40
2018-08-19T23:57:10.026Z,28.36
2018-08-19T23:59:39.079Z,28.35
